sensor_id;sensor_type;location;lat;lon;timestamp;pressure;altitude;pressure_sealevel;temperature;humidity
76687;BME280;65615;47.378;19.344;2023-03-31T04:26:40;99760.94;;;8.02;100.00
76687;BME280;65615;47.378;19.344;2023-03-31T04:30:46;99760.94;;;8.02;100.00
76687;BME280;65615;47.378;19.344;2023-03-31T04:34:48;99766.53;;;7.64;100.00
76687;BME280;65615;47.378;19.344;2023-03-31T04:39:04;99762.63;;;7.68;100.00
76687;BME280;65615;47.378;19.344;2023-03-31T04:43:07;99767.75;;;7.52;100.00
76687;BME280;65615;47.378;19.344;2023-03-31T04:47:10;99755.28;;;7.54;100.00
76687;BME280;65615;47.378;19.344;2023-03-31T04:51:13;99752.38;;;7.39;100.00
76687;BME280;65615;47.378;19.344;2023-03-31T04:55:18;99757.84;;;7.46;100.00
76687;BME280;65615;47.378;19.344;2023-03-31T04:59:20;99767.22;;;7.31;100.00
76687;BME280;65615;47.378;19.344;2023-03-31T05:03:26;99772.06;;;7.26;100.00
76687;BME280;65615;47.378;19.344;2023-03-31T05:07:51;99769.25;;;7.19;100.00
76687;BME280;65615;47.378;19.344;2023-03-31T05:11:58;99760.38;;;7.38;100.00
76687;BME280;65615;47.378;19.344;2023-03-31T05:16:10;99763.25;;;7.62;100.00
76687;BME280;65615;47.378;19.344;2023-03-31T05:20:16;99751.50;;;7.92;100.00
76687;BME280;65615;47.378;19.344;2023-03-31T05:24:21;99743.59;;;8.09;100.00
76687;BME280;65615;47.378;19.344;2023-03-31T05:28:24;99743.94;;;8.14;100.00
76687;BME280;65615;47.378;19.344;2023-03-31T05:32:27;99737.34;;;8.36;100.00
76687;BME280;65615;47.378;19.344;2023-03-31T05:36:33;99741.37;;;8.48;100.00
76687;BME280;65615;47.378;19.344;2023-03-31T05:40:36;99736.97;;;8.56;100.00
76687;BME280;65615;47.378;19.344;2023-03-31T05:44:40;99737.72;;;8.75;100.00
76687;BME280;65615;47.378;19.344;2023-03-31T05:48:43;99742.34;;;8.81;100.00
76687;BME280;65615;47.378;19.344;2023-03-31T05:52:54;99746.34;;;8.93;100.00
76687;BME280;65615;47.378;19.344;2023-03-31T05:56:57;99740.13;;;9.02;100.00
76687;BME280;65615;47.378;19.344;2023-03-31T06:01:07;99741.81;;;9.19;100.00
76687;BME280;65615;47.378;19.344;2023-03-31T06:06:23;99740.38;;;9.40;100.00
76687;BME280;65615;47.378;19.344;2023-03-31T06:10:49;99733.34;;;9.65;100.00
76687;BME280;65615;47.378;19.344;2023-03-31T06:15:29;99731.84;;;9.87;100.00
76687;BME280;65615;47.378;19.344;2023-03-31T06:20:16;99724.41;;;10.14;100.00
76687;BME280;65615;47.378;19.344;2023-03-31T06:26:02;99725.72;;;10.26;100.00
76687;BME280;65615;47.378;19.344;2023-03-31T06:31:31;99723.06;;;10.26;100.00
76687;BME280;65615;47.378;19.344;2023-03-31T06:36:09;99725.03;;;10.41;100.00
76687;BME280;65615;47.378;19.344;2023-03-31T06:41:28;99722.50;;;10.63;100.00
76687;BME280;65615;47.378;19.344;2023-03-31T06:46:20;99719.84;;;11.02;100.00
76687;BME280;65615;47.378;19.344;2023-03-31T06:50:27;99726.34;;;11.22;100.00
76687;BME280;65615;47.378;19.344;2023-03-31T06:54:55;99722.00;;;11.29;100.00
76687;BME280;65615;47.378;19.344;2023-03-31T07:00:17;99722.84;;;11.52;100.00
76687;BME280;65615;47.378;19.344;2023-03-31T07:04:24;99726.03;;;11.70;100.00
76687;BME280;65615;47.378;19.344;2023-03-31T07:08:27;99723.34;;;11.93;100.00
76687;BME280;65615;47.378;19.344;2023-03-31T07:12:32;99720.22;;;12.12;100.00
76687;BME280;65615;47.378;19.344;2023-03-31T07:16:39;99721.88;;;12.28;100.00
76687;BME280;65615;47.378;19.344;2023-03-31T07:20:42;99731.38;;;12.51;100.00
76687;BME280;65615;47.378;19.344;2023-03-31T07:24:48;99725.56;;;12.70;100.00
76687;BME280;65615;47.378;19.344;2023-03-31T07:29:05;99732.03;;;12.82;100.00
76687;BME280;65615;47.378;19.344;2023-03-31T07:33:12;99719.59;;;12.83;100.00
76687;BME280;65615;47.378;19.344;2023-03-31T07:37:25;99727.63;;;13.04;100.00
76687;BME280;65615;47.378;19.344;2023-03-31T07:41:39;99722.22;;;13.12;100.00
76687;BME280;65615;47.378;19.344;2023-03-31T07:46:34;99729.38;;;12.82;100.00
76687;BME280;65615;47.378;19.344;2023-03-31T07:51:31;99717.66;;;12.92;100.00
76687;BME280;65615;47.378;19.344;2023-03-31T07:56:10;99709.69;;;12.92;100.00
76687;BME280;65615;47.378;19.344;2023-03-31T08:00:14;99707.91;;;13.28;98.96
76687;BME280;65615;47.378;19.344;2023-03-31T08:04:25;99696.37;;;13.56;98.16
76687;BME280;65615;47.378;19.344;2023-03-31T08:08:30;99694.44;;;13.72;91.22
76687;BME280;65615;47.378;19.344;2023-03-31T08:12:42;99693.81;;;13.91;92.86
76687;BME280;65615;47.378;19.344;2023-03-31T08:16:52;99683.69;;;14.01;92.61
76687;BME280;65615;47.378;19.344;2023-03-31T08:21:04;99684.78;;;14.40;86.91
76687;BME280;65615;47.378;19.344;2023-03-31T08:25:13;99678.78;;;14.66;88.32
76687;BME280;65615;47.378;19.344;2023-03-31T08:29:22;99665.78;;;14.84;89.85
76687;BME280;65615;47.378;19.344;2023-03-31T08:33:28;99656.59;;;14.93;86.71
76687;BME280;65615;47.378;19.344;2023-03-31T08:38:02;99655.59;;;15.07;86.26
76687;BME280;65615;47.378;19.344;2023-03-31T08:46:53;99642.59;;;15.39;86.54
76687;BME280;65615;47.378;19.344;2023-03-31T08:51:37;99638.09;;;15.98;85.62
76687;BME280;65615;47.378;19.344;2023-03-31T08:56:00;99630.31;;;16.03;82.81
76687;BME280;65615;47.378;19.344;2023-03-31T09:00:17;99614.72;;;16.00;84.42
76687;BME280;65615;47.378;19.344;2023-03-31T09:09:24;99613.37;;;16.48;81.01
76687;BME280;65615;47.378;19.344;2023-03-31T09:18:36;99588.25;;;17.38;80.35
76687;BME280;65615;47.378;19.344;2023-03-31T09:27:20;99569.28;;;17.46;75.30
76687;BME280;65615;47.378;19.344;2023-03-31T09:31:53;99564.22;;;18.05;69.90
76687;BME280;65615;47.378;19.344;2023-03-31T09:36:14;99555.75;;;17.90;71.52
76687;BME280;65615;47.378;19.344;2023-03-31T09:40:41;99549.41;;;18.45;66.33
76687;BME280;65615;47.378;19.344;2023-03-31T09:45:20;99543.34;;;18.50;65.40
76687;BME280;65615;47.378;19.344;2023-03-31T09:49:27;99541.66;;;18.97;63.85
76687;BME280;65615;47.378;19.344;2023-03-31T09:54:26;99532.88;;;19.08;62.27
76687;BME280;65615;47.378;19.344;2023-03-31T10:04:23;99515.81;;;18.91;60.40
76687;BME280;65615;47.378;19.344;2023-03-31T10:09:19;99522.34;;;18.95;61.32
76687;BME280;65615;47.378;19.344;2023-03-31T10:17:53;99510.97;;;19.11;60.14
76687;BME280;65615;47.378;19.344;2023-03-31T10:22:34;99508.19;;;19.29;59.80
76687;BME280;65615;47.378;19.344;2023-03-31T10:27:27;99492.94;;;19.18;58.59
76687;BME280;65615;47.378;19.344;2023-03-31T10:31:35;99481.41;;;19.06;58.41
76687;BME280;65615;47.378;19.344;2023-03-31T10:35:40;99476.72;;;20.05;57.43
76687;BME280;65615;47.378;19.344;2023-03-31T10:44:40;99456.25;;;19.76;58.02
76687;BME280;65615;47.378;19.344;2023-03-31T10:48:53;99454.16;;;19.32;58.34
76687;BME280;65615;47.378;19.344;2023-03-31T10:53:13;99454.41;;;19.07;59.71
76687;BME280;65615;47.378;19.344;2023-03-31T10:57:48;99452.78;;;19.18;61.46
76687;BME280;65615;47.378;19.344;2023-03-31T11:03:12;99448.12;;;18.01;63.94
76687;BME280;65615;47.378;19.344;2023-03-31T11:07:57;99444.28;;;17.61;68.05
76687;BME280;65615;47.378;19.344;2023-03-31T11:35:41;99403.44;;;20.16;60.56
76687;BME280;65615;47.378;19.344;2023-03-31T11:44:15;99372.97;;;19.94;62.03
76687;BME280;65615;47.378;19.344;2023-03-31T11:48:37;99355.00;;;20.51;59.95
76687;BME280;65615;47.378;19.344;2023-03-31T11:53:24;99353.31;;;19.89;60.68
76687;BME280;65615;47.378;19.344;2023-03-31T12:01:56;99324.44;;;19.79;58.99
76687;BME280;65615;47.378;19.344;2023-03-31T12:06:15;99314.94;;;19.09;60.38
76687;BME280;65615;47.378;19.344;2023-03-31T12:10:28;99294.28;;;18.70;61.24
76687;BME280;65615;47.378;19.344;2023-03-31T12:19:46;99300.66;;;19.83;60.65
76687;BME280;65615;47.378;19.344;2023-03-31T12:24:03;99287.63;;;20.86;58.21
76687;BME280;65615;47.378;19.344;2023-03-31T12:28:14;99284.84;;;20.81;58.37
76687;BME280;65615;47.378;19.344;2023-03-31T12:32:21;99268.34;;;20.89;56.71
76687;BME280;65615;47.378;19.344;2023-03-31T12:37:16;99269.00;;;19.96;60.04
76687;BME280;65615;47.378;19.344;2023-03-31T12:56:05;99238.16;;;20.27;59.11
76687;BME280;65615;47.378;19.344;2023-03-31T13:00:20;99234.56;;;20.05;59.35
76687;BME280;65615;47.378;19.344;2023-03-31T13:04:26;99210.91;;;21.33;55.01
76687;BME280;65615;47.378;19.344;2023-03-31T13:08:49;99207.69;;;21.84;53.06
76687;BME280;65615;47.378;19.344;2023-03-31T13:13:12;99202.38;;;21.68;52.96
76687;BME280;65615;47.378;19.344;2023-03-31T13:17:24;99199.72;;;20.98;56.42
76687;BME280;65615;47.378;19.344;2023-03-31T13:21:29;99197.53;;;21.91;53.70
76687;BME280;65615;47.378;19.344;2023-03-31T13:29:57;99173.81;;;21.08;55.84
76687;BME280;65615;47.378;19.344;2023-03-31T13:34:05;99171.34;;;21.02;56.52
76687;BME280;65615;47.378;19.344;2023-03-31T13:43:05;99155.63;;;20.72;55.83
76687;BME280;65615;47.378;19.344;2023-03-31T13:47:46;99159.56;;;20.65;55.67
76687;BME280;65615;47.378;19.344;2023-03-31T13:52:03;99146.47;;;20.90;55.80
76687;BME280;65615;47.378;19.344;2023-03-31T13:56:51;99129.97;;;20.60;57.88
76687;BME280;65615;47.378;19.344;2023-03-31T14:09:43;99093.63;;;18.98;63.98
76687;BME280;65615;47.378;19.344;2023-03-31T14:14:15;99085.84;;;19.13;63.82
76687;BME280;65615;47.378;19.344;2023-03-31T14:18:30;99078.13;;;18.72;64.63
76687;BME280;65615;47.378;19.344;2023-03-31T14:40:03;99052.78;;;20.23;56.84
76687;BME280;65615;47.378;19.344;2023-03-31T14:44:10;99040.47;;;20.71;55.03
76687;BME280;65615;47.378;19.344;2023-03-31T14:48:14;99034.38;;;20.54;55.68
76687;BME280;65615;47.378;19.344;2023-03-31T14:52:20;99016.00;;;20.67;55.01
76687;BME280;65615;47.378;19.344;2023-03-31T14:56:37;99023.63;;;19.72;57.16
